Time;durP1;ratioP1;P1;durP2;ratioP2;P2;SDS_P1;SDS_P2;PMS_P1;PMS_P2;Temp;Humidity;BMP_temperature;BMP_pressure;BME280_temperature;BME280_humidity;BME280_pressure;Samples;Min_cycle;Max_cycle;Signal;HPM_P1;HPM_P2
2023/10/14 00:00:53;;;;;;;1.50;1.40;;;;;;;;;;5013937;28;20037;-76
2023/10/14 00:03:29;;;;;;;1.70;1.30;;;;;;;;;;5014065;28;20022;-76
2023/10/14 00:05:58;;;;;;;2.75;1.40;;;;;;;;;;5013332;28;20029;-76
2023/10/14 00:08:27;;;;;;;2.00;1.60;;;;;;;;;;5014352;28;20056;-77
2023/10/14 00:10:54;;;;;;;1.45;1.23;;;;;;;;;;5014075;28;20101;-76
2023/10/14 00:13:20;;;;;;;1.30;1.17;;;;;;;;;;5013395;28;20022;-77
2023/10/14 00:15:46;;;;;;;1.67;1.55;;;;;;;;;;5013061;28;20413;-78
2023/10/14 00:18:13;;;;;;;1.50;1.10;;;;;;;;;;5013215;28;20145;-77
2023/10/14 00:20:39;;;;;;;1.67;1.20;;;;;;;;;;4996250;28;20022;-77
2023/10/14 00:23:06;;;;;;;1.20;1.10;;;;;;;;;;5013318;28;20125;-77
2023/10/14 00:25:35;;;;;;;1.65;1.40;;;;;;;;;;5012874;28;20511;-77
2023/10/14 00:28:11;;;;;;;1.40;1.30;;;;;;;;;;5017359;28;20022;-77
2023/10/14 00:30:38;;;;;;;1.52;1.42;;;;;;;;;;4996540;28;20026;-77
2023/10/14 00:33:04;;;;;;;1.98;1.70;;;;;;;;;;5012537;28;20401;-76
2023/10/14 00:35:30;;;;;;;1.95;1.58;;;;;;;;;;5012173;28;20041;-76
2023/10/14 00:38:02;;;;;;;1.50;1.40;;;;;;;;;;5013005;28;20014;-76
2023/10/14 00:40:28;;;;;;;1.70;1.40;;;;;;;;;;5015968;28;20037;-75
2023/10/14 00:42:56;;;;;;;1.85;1.60;;;;;;;;;;4995794;28;20022;-76
2023/10/14 00:45:22;;;;;;;1.90;1.42;;;;;;;;;;5012237;28;20228;-77
2023/10/14 00:47:49;;;;;;;1.48;1.35;;;;;;;;;;5012398;28;20030;-76
2023/10/14 00:52:57;;;;;;;4.38;2.90;;;;;;;;;;5012776;28;20665;-75
2023/10/14 00:55:46;;;;;;;2.85;2.03;;;;;;;;;;5011907;28;20112;-76
2023/10/14 00:58:12;;;;;;;3.00;1.70;;;;;;;;;;5012750;28;20046;-76
2023/10/14 01:00:56;;;;;;;3.42;2.05;;;;;;;;;;4994943;28;20033;-76
2023/10/14 01:03:23;;;;;;;3.60;2.20;;;;;;;;;;5012058;28;20040;-76
2023/10/14 01:05:49;;;;;;;2.35;1.88;;;;;;;;;;5011673;28;20034;-76
2023/10/14 01:08:15;;;;;;;2.35;1.85;;;;;;;;;;5013724;28;20034;-75
2023/10/14 01:10:42;;;;;;;2.70;2.17;;;;;;;;;;5015643;28;20018;-76
2023/10/14 01:13:18;;;;;;;2.13;1.92;;;;;;;;;;4997771;28;20457;-76
2023/10/14 01:15:48;;;;;;;3.45;1.95;;;;;;;;;;5015406;28;20029;-76
2023/10/14 01:18:15;;;;;;;3.40;2.25;;;;;;;;;;5017251;28;20477;-76
2023/10/14 01:20:42;;;;;;;2.70;2.30;;;;;;;;;;5016362;28;20033;-76
2023/10/14 01:23:13;;;;;;;2.53;2.13;;;;;;;;;;5017104;28;20499;-75
2023/10/14 01:25:51;;;;;;;2.15;1.95;;;;;;;;;;5024860;28;20089;-75
2023/10/14 01:28:21;;;;;;;2.42;1.77;;;;;;;;;;5005780;28;20417;-75
2023/10/14 01:31:25;;;;;;;2.05;1.80;;;;;;;;;;5020362;28;20444;-76
2023/10/14 01:33:51;;;;;;;2.00;1.63;;;;;;;;;;5015938;28;20389;-77
2023/10/14 01:36:18;;;;;;;2.40;2.03;;;;;;;;;;5015600;28;20036;-77
2023/10/14 01:38:51;;;;;;;2.17;1.88;;;;;;;;;;5015625;28;20026;-77
2023/10/14 01:41:17;;;;;;;3.85;2.10;;;;;;;;;;5016103;28;20078;-76
2023/10/14 01:43:43;;;;;;;2.08;1.80;;;;;;;;;;5015543;28;20022;-76
2023/10/14 01:46:10;;;;;;;2.00;1.75;;;;;;;;;;5015921;28;20025;-76
2023/10/14 01:48:42;;;;;;;2.67;1.60;;;;;;;;;;5016108;28;20044;-76
2023/10/14 01:51:09;;;;;;;2.55;1.90;;;;;;;;;;5016606;28;20054;-76
2023/10/14 01:53:38;;;;;;;1.70;1.60;;;;;;;;;;5015701;28;20037;-76
2023/10/14 01:56:06;;;;;;;3.00;1.88;;;;;;;;;;5015468;28;20022;-76
2023/10/14 01:58:36;;;;;;;2.03;1.80;;;;;;;;;;4997712;28;20049;-76
2023/10/14 02:03:47;;;;;;;1.52;1.40;;;;;;;;;;5014671;28;20084;-77
2023/10/14 02:06:16;;;;;;;1.67;1.58;;;;;;;;;;5015142;28;20109;-76
2023/10/14 02:08:44;;;;;;;3.03;1.88;;;;;;;;;;5014962;28;20026;-76
2023/10/14 02:11:10;;;;;;;3.10;1.90;;;;;;;;;;5015615;28;20105;-76
2023/10/14 02:13:36;;;;;;;1.70;1.58;;;;;;;;;;4997522;28;20022;-79
2023/10/14 02:16:09;;;;;;;1.80;1.40;;;;;;;;;;5014661;28;20081;-76
2023/10/14 02:18:38;;;;;;;1.60;1.50;;;;;;;;;;5014556;28;20397;-76
2023/10/14 02:21:11;;;;;;;1.30;1.20;;;;;;;;;;4996283;28;20099;-75
2023/10/14 02:23:45;;;;;;;1.45;1.35;;;;;;;;;;4996876;28;20112;-76
2023/10/14 02:26:33;;;;;;;3.60;1.70;;;;;;;;;;5014561;28;20040;-76
2023/10/14 02:28:59;;;;;;;1.88;1.52;;;;;;;;;;5014857;28;20026;-76
2023/10/14 02:31:29;;;;;;;1.40;1.30;;;;;;;;;;5014968;28;20496;-76
2023/10/14 02:34:06;;;;;;;1.40;1.30;;;;;;;;;;5014801;28;20380;-76
2023/10/14 02:36:36;;;;;;;1.50;1.38;;;;;;;;;;5014518;28;20108;-76
2023/10/14 02:39:04;;;;;;;2.22;1.60;;;;;;;;;;5015124;28;20026;-75
2023/10/14 02:41:32;;;;;;;1.60;1.50;;;;;;;;;;5014554;28;20041;-77
2023/10/14 02:46:41;;;;;;;1.60;1.50;;;;;;;;;;5014573;28;20030;-75
2023/10/14 02:49:07;;;;;;;1.23;1.10;;;;;;;;;;5018637;28;20030;-77
2023/10/14 02:51:41;;;;;;;1.80;1.40;;;;;;;;;;5020874;28;20037;-77
2023/10/14 02:54:15;;;;;;;1.65;1.55;;;;;;;;;;5018771;28;20068;-76
2023/10/14 02:56:55;;;;;;;1.10;1.05;;;;;;;;;;5016746;28;20512;-76
2023/10/14 02:59:29;;;;;;;1.83;1.45;;;;;;;;;;5018671;28;20022;-76
2023/10/14 03:07:33;;;;;;;1.02;1.02;;;;;;;;;;5002805;28;20226;-77
2023/10/14 03:10:10;;;;;;;1.42;1.10;;;;;;;;;;5013786;28;20018;-77
2023/10/14 03:12:39;;;;;;;1.77;1.10;;;;;;;;;;5014037;28;20017;-76
2023/10/14 03:15:18;;;;;;;1.20;1.10;;;;;;;;;;5013746;28;20026;-76
2023/10/14 03:17:52;;;;;;;1.73;1.35;;;;;;;;;;5015225;28;20022;-75
2023/10/14 03:23:18;;;;;;;1.20;1.10;;;;;;;;;;5014073;28;20045;-76
2023/10/14 03:25:45;;;;;;;0.93;0.93;;;;;;;;;;5013735;28;20022;-76
2023/10/14 03:30:38;;;;;;;1.35;1.25;;;;;;;;;;5013959;28;20033;-77
2023/10/14 03:33:09;;;;;;;1.10;1.05;;;;;;;;;;5013816;28;20052;-76
2023/10/14 03:35:36;;;;;;;1.20;1.10;;;;;;;;;;4995968;28;20065;-76
2023/10/14 03:38:11;;;;;;;1.15;1.05;;;;;;;;;;5013609;28;20018;-76
2023/10/14 03:40:51;;;;;;;0.90;0.85;;;;;;;;;;5013926;28;20022;-78
2023/10/14 03:43:18;;;;;;;1.55;1.38;;;;;;;;;;5013920;28;20025;-76
2023/10/14 03:45:53;;;;;;;2.05;1.33;;;;;;;;;;5013554;28;20409;-77
2023/10/14 03:48:20;;;;;;;2.28;1.52;;;;;;;;;;5013894;28;20025;-76
2023/10/14 03:50:47;;;;;;;1.50;1.40;;;;;;;;;;5014033;28;20108;-77
2023/10/14 03:53:13;;;;;;;3.25;1.88;;;;;;;;;;5013762;28;20511;-76
2023/10/14 03:55:41;;;;;;;2.97;2.22;;;;;;;;;;4995545;28;20110;-76
2023/10/14 03:58:08;;;;;;;4.75;2.42;;;;;;;;;;4996150;28;20034;-76
2023/10/14 04:00:37;;;;;;;4.22;2.40;;;;;;;;;;5013304;28;20034;-76
2023/10/14 04:03:11;;;;;;;2.88;2.40;;;;;;;;;;5013331;28;20030;-76
2023/10/14 04:05:38;;;;;;;1.83;1.73;;;;;;;;;;5013170;28;20113;-76
2023/10/14 04:08:05;;;;;;;2.38;2.00;;;;;;;;;;5013213;28;20065;-76
2023/10/14 04:10:37;;;;;;;2.83;1.85;;;;;;;;;;5026975;28;20246;-77
2023/10/14 04:13:04;;;;;;;4.90;2.50;;;;;;;;;;5021847;28;20040;-76
2023/10/14 04:17:57;;;;;;;8.10;3.47;;;;;;;;;;5013795;28;20237;-77
2023/10/14 04:20:32;;;;;;;3.70;2.38;;;;;;;;;;5013417;28;20021;-77
2023/10/14 04:23:05;;;;;;;5.00;2.33;;;;;;;;;;5013430;28;20018;-76
2023/10/14 04:25:41;;;;;;;3.55;2.42;;;;;;;;;;5016166;28;20104;-75
2023/10/14 04:30:44;;;;;;;2.22;2.00;;;;;;;;;;4993212;28;20054;-76
2023/10/14 04:33:19;;;;;;;11.30;3.70;;;;;;;;;;4993328;28;20093;-76
2023/10/14 04:38:38;;;;;;;6.53;3.05;;;;;;;;;;4993112;28;20061;-75
2023/10/14 04:41:05;;;;;;;6.10;3.28;;;;;;;;;;5012150;28;20053;-76
2023/10/14 04:48:35;;;;;;;5.90;3.05;;;;;;;;;;5015918;28;20048;-76
2023/10/14 04:51:15;;;;;;;6.30;3.53;;;;;;;;;;5016036;28;20029;-75
2023/10/14 04:53:44;;;;;;;4.53;2.75;;;;;;;;;;5015485;28;20026;-75
2023/10/14 04:56:29;;;;;;;6.30;3.10;;;;;;;;;;5015664;28;20034;-76
2023/10/14 04:58:55;;;;;;;6.78;3.38;;;;;;;;;;5016056;28;20018;-76
2023/10/14 05:01:24;;;;;;;4.38;2.78;;;;;;;;;;4998483;28;20026;-75
2023/10/14 05:03:55;;;;;;;6.82;2.90;;;;;;;;;;5016066;28;20025;-75
2023/10/14 05:06:22;;;;;;;10.82;3.17;;;;;;;;;;5016398;28;20030;-76
2023/10/14 05:08:57;;;;;;;6.55;3.10;;;;;;;;;;5018083;28;20026;-75
2023/10/14 05:11:25;;;;;;;7.15;3.80;;;;;;;;;;5016604;28;20068;-75
2023/10/14 05:14:14;;;;;;;4.97;3.08;;;;;;;;;;5014586;28;20030;-75
2023/10/14 05:16:55;;;;;;;7.30;3.30;;;;;;;;;;5015462;28;20337;-75
2023/10/14 05:19:29;;;;;;;5.32;3.45;;;;;;;;;;5015647;28;20049;-75
2023/10/14 05:22:10;;;;;;;5.18;3.42;;;;;;;;;;5016297;28;20497;-76
2023/10/14 05:24:36;;;;;;;6.63;3.22;;;;;;;;;;5015457;28;20026;-75
2023/10/14 05:27:02;;;;;;;22.17;5.05;;;;;;;;;;5015996;28;20145;-75
2023/10/14 05:29:29;;;;;;;7.68;3.53;;;;;;;;;;5016232;28;20018;-75
2023/10/14 05:32:10;;;;;;;6.10;3.42;;;;;;;;;;5023770;28;20025;-75
2023/10/14 05:34:37;;;;;;;8.55;4.03;;;;;;;;;;5016084;28;20134;-76
2023/10/14 05:37:06;;;;;;;6.97;3.30;;;;;;;;;;5016258;28;20014;-75
2023/10/14 05:39:37;;;;;;;4.07;3.67;;;;;;;;;;5016595;28;20478;-76
2023/10/14 05:42:13;;;;;;;4.75;3.72;;;;;;;;;;5016136;28;20022;-75
2023/10/14 05:44:46;;;;;;;6.15;3.20;;;;;;;;;;5016698;28;20072;-76
2023/10/14 05:47:12;;;;;;;14.88;4.78;;;;;;;;;;5020245;28;20018;-76
2023/10/14 05:49:38;;;;;;;7.47;3.40;;;;;;;;;;5017841;28;20029;-75
2023/10/14 05:52:04;;;;;;;7.05;3.95;;;;;;;;;;4999032;28;20041;-75
2023/10/14 05:54:30;;;;;;;9.65;3.85;;;;;;;;;;5015799;28;20413;-76
2023/10/14 05:56:56;;;;;;;10.63;4.35;;;;;;;;;;5017798;28;20029;-75
2023/10/14 05:59:22;;;;;;;8.02;4.32;;;;;;;;;;5023167;28;20025;-75
2023/10/14 06:01:48;;;;;;;5.95;4.30;;;;;;;;;;5022671;28;20025;-75
2023/10/14 06:04:15;;;;;;;4.85;3.58;;;;;;;;;;5026410;28;20018;-76
2023/10/14 06:06:44;;;;;;;7.05;3.67;;;;;;;;;;5024573;28;20061;-76
2023/10/14 06:09:10;;;;;;;6.22;3.25;;;;;;;;;;5022058;28;20034;-76
2023/10/14 06:11:37;;;;;;;8.48;3.88;;;;;;;;;;5015181;28;20061;-76
2023/10/14 06:14:03;;;;;;;12.02;4.78;;;;;;;;;;5016360;28;20133;-76
2023/10/14 06:16:31;;;;;;;6.65;3.90;;;;;;;;;;5016095;28;20088;-76
2023/10/14 06:18:57;;;;;;;10.70;4.25;;;;;;;;;;5016182;28;20337;-76
2023/10/14 06:21:27;;;;;;;11.05;4.28;;;;;;;;;;5016361;28;20484;-76
2023/10/14 06:23:54;;;;;;;8.23;4.40;;;;;;;;;;5016074;28;20013;-76
2023/10/14 06:26:20;;;;;;;7.35;4.53;;;;;;;;;;5017667;28;20030;-76
2023/10/14 06:28:48;;;;;;;7.20;4.25;;;;;;;;;;5019053;28;20034;-76
2023/10/14 06:31:14;;;;;;;9.88;4.72;;;;;;;;;;5019748;28;20098;-75
2023/10/14 06:33:40;;;;;;;16.85;4.68;;;;;;;;;;5017610;28;20045;-76
2023/10/14 06:36:10;;;;;;;9.27;3.80;;;;;;;;;;5015668;28;20493;-76
2023/10/14 06:38:40;;;;;;;10.73;4.65;;;;;;;;;;5015707;28;20493;-76
2023/10/14 06:41:11;;;;;;;8.40;4.60;;;;;;;;;;5015719;28;20026;-76
2023/10/14 06:43:38;;;;;;;7.55;3.90;;;;;;;;;;5000148;28;20026;-75
2023/10/14 06:46:05;;;;;;;8.32;4.10;;;;;;;;;;4999429;28;20030;-77
2023/10/14 06:48:31;;;;;;;5.55;4.00;;;;;;;;;;5017955;28;20034;-75
2023/10/14 06:50:59;;;;;;;5.50;3.55;;;;;;;;;;5015342;28;20022;-75
2023/10/14 06:53:28;;;;;;;13.75;4.00;;;;;;;;;;5014830;28;20072;-75
2023/10/14 06:55:55;;;;;;;5.85;3.50;;;;;;;;;;5014352;28;20080;-76
2023/10/14 06:58:21;;;;;;;6.35;3.35;;;;;;;;;;5014799;28;20025;-76
2023/10/14 07:00:48;;;;;;;7.65;3.10;;;;;;;;;;5014953;28;20140;-76
2023/10/14 07:03:15;;;;;;;9.13;4.07;;;;;;;;;;5014053;28;20022;-75
2023/10/14 07:05:46;;;;;;;10.45;4.13;;;;;;;;;;5013051;28;20041;-75
2023/10/14 07:08:13;;;;;;;5.80;3.38;;;;;;;;;;5014860;28;20021;-75
2023/10/14 07:10:39;;;;;;;7.22;3.67;;;;;;;;;;5014304;28;20504;-75
2023/10/14 07:13:06;;;;;;;5.63;2.88;;;;;;;;;;5014727;28;20076;-77
2023/10/14 07:15:36;;;;;;;10.43;3.40;;;;;;;;;;5013922;28;20029;-76
2023/10/14 07:18:02;;;;;;;5.65;3.70;;;;;;;;;;5014417;28;20026;-76
2023/10/14 07:20:31;;;;;;;5.25;3.00;;;;;;;;;;5014550;28;20422;-76
2023/10/14 07:22:58;;;;;;;9.50;3.55;;;;;;;;;;5014720;28;20030;-77
2023/10/14 07:25:25;;;;;;;7.18;2.83;;;;;;;;;;5014259;28;20030;-77
2023/10/14 07:27:51;;;;;;;6.60;3.30;;;;;;;;;;5014399;28;20113;-74
2023/10/14 07:30:18;;;;;;;8.48;3.38;;;;;;;;;;5014339;28;20022;-76
2023/10/14 07:32:45;;;;;;;5.95;2.92;;;;;;;;;;5014599;28;20042;-76
2023/10/14 07:35:12;;;;;;;5.30;3.20;;;;;;;;;;5021496;28;20030;-77
2023/10/14 07:37:42;;;;;;;5.70;3.47;;;;;;;;;;5025176;28;20048;-74
2023/10/14 07:40:11;;;;;;;4.43;3.40;;;;;;;;;;4996520;28;20105;-76
2023/10/14 07:42:40;;;;;;;3.03;2.63;;;;;;;;;;5014086;28;20026;-77
2023/10/14 07:45:10;;;;;;;5.32;3.03;;;;;;;;;;5013615;28;20477;-77
2023/10/14 07:47:37;;;;;;;6.88;3.05;;;;;;;;;;5014303;28;20432;-76
2023/10/14 07:50:09;;;;;;;5.55;3.30;;;;;;;;;;5014089;28;20036;-76
2023/10/14 07:52:35;;;;;;;4.07;2.72;;;;;;;;;;5013625;28;20026;-76
2023/10/14 07:55:02;;;;;;;5.82;3.75;;;;;;;;;;5012916;28;20029;-76
2023/10/14 07:57:28;;;;;;;10.40;3.38;;;;;;;;;;5013638;28;20050;-75
2023/10/14 07:59:59;;;;;;;4.03;2.97;;;;;;;;;;5013971;28;20026;-76
2023/10/14 08:02:26;;;;;;;4.68;3.28;;;;;;;;;;5013416;28;20166;-77
2023/10/14 08:04:53;;;;;;;4.15;3.20;;;;;;;;;;5013780;28;20029;-76
2023/10/14 08:07:19;;;;;;;4.38;3.10;;;;;;;;;;5012856;28;20026;-76
2023/10/14 08:09:47;;;;;;;8.20;3.70;;;;;;;;;;5013424;28;20029;-75
2023/10/14 08:12:14;;;;;;;5.25;3.65;;;;;;;;;;4996254;28;20053;-75
2023/10/14 08:14:40;;;;;;;9.23;3.65;;;;;;;;;;5013758;28;20097;-75
2023/10/14 08:17:11;;;;;;;5.88;3.08;;;;;;;;;;5013188;28;20033;-75
2023/10/14 08:19:38;;;;;;;6.40;3.20;;;;;;;;;;5015429;28;20517;-75
2023/10/14 08:22:05;;;;;;;7.70;3.15;;;;;;;;;;5013450;28;20029;-76
2023/10/14 08:24:31;;;;;;;5.55;3.15;;;;;;;;;;5014221;28;20030;-76
2023/10/14 08:26:57;;;;;;;6.32;3.05;;;;;;;;;;5014832;28;20141;-76
2023/10/14 08:29:25;;;;;;;6.03;3.45;;;;;;;;;;5016340;28;20465;-77
2023/10/14 08:31:54;;;;;;;5.10;3.00;;;;;;;;;;5013795;28;20124;-76
2023/10/14 08:34:23;;;;;;;3.80;2.85;;;;;;;;;;4995764;28;20030;-75
2023/10/14 08:36:49;;;;;;;11.40;3.60;;;;;;;;;;5013497;28;20285;-76
2023/10/14 08:39:15;;;;;;;4.95;3.00;;;;;;;;;;5014732;28;20057;-76
2023/10/14 08:41:45;;;;;;;7.45;2.72;;;;;;;;;;5013015;28;20025;-76
2023/10/14 08:44:11;;;;;;;7.43;3.63;;;;;;;;;;5012872;28;20073;-75
2023/10/14 08:46:39;;;;;;;9.32;3.92;;;;;;;;;;5013643;28;20084;-75
2023/10/14 08:49:07;;;;;;;9.68;3.20;;;;;;;;;;5015106;28;20033;-75
2023/10/14 08:51:34;;;;;;;6.60;3.10;;;;;;;;;;5013505;28;20034;-75
2023/10/14 08:54:01;;;;;;;6.57;3.25;;;;;;;;;;5012640;28;20026;-75
2023/10/14 08:56:27;;;;;;;8.15;3.63;;;;;;;;;;5012641;28;20112;-76
2023/10/14 08:58:53;;;;;;;8.15;3.35;;;;;;;;;;5013026;28;20037;-76
2023/10/14 09:01:22;;;;;;;5.28;3.58;;;;;;;;;;5013646;28;20568;-76
2023/10/14 09:03:49;;;;;;;7.60;3.35;;;;;;;;;;5013127;28;20129;-76
2023/10/14 09:06:16;;;;;;;7.13;3.58;;;;;;;;;;5013144;28;20022;-77
2023/10/14 09:08:44;;;;;;;9.65;4.22;;;;;;;;;;5013063;28;20113;-76
2023/10/14 09:11:25;;;;;;;6.78;3.47;;;;;;;;;;5013443;28;20026;-76
2023/10/14 09:14:00;;;;;;;9.15;3.58;;;;;;;;;;5013009;28;20192;-75
2023/10/14 09:16:27;;;;;;;5.53;3.30;;;;;;;;;;5012852;28;20117;-76
2023/10/14 09:19:00;;;;;;;7.88;3.85;;;;;;;;;;5012914;28;20084;-77
2023/10/14 09:21:27;;;;;;;5.45;3.13;;;;;;;;;;5012993;28;20101;-75
2023/10/14 09:23:53;;;;;;;6.13;3.80;;;;;;;;;;5013193;28;20018;-77
2023/10/14 09:26:19;;;;;;;10.70;3.80;;;;;;;;;;5013172;28;20030;-76
2023/10/14 09:28:46;;;;;;;6.50;4.03;;;;;;;;;;5013463;28;20481;-76
2023/10/14 09:31:12;;;;;;;7.18;3.72;;;;;;;;;;5016183;28;20045;-75
2023/10/14 09:33:41;;;;;;;4.70;3.17;;;;;;;;;;5016622;28;20025;-77
2023/10/14 09:36:20;;;;;;;5.80;3.17;;;;;;;;;;5016856;28;20393;-76
2023/10/14 09:38:51;;;;;;;6.13;3.15;;;;;;;;;;5016345;28;20026;-76
2023/10/14 09:41:17;;;;;;;10.05;3.40;;;;;;;;;;5016745;28;20030;-75
2023/10/14 09:43:46;;;;;;;8.27;4.00;;;;;;;;;;4999393;28;20030;-76
2023/10/14 09:46:12;;;;;;;6.93;3.47;;;;;;;;;;5016756;28;20032;-77
2023/10/14 09:48:43;;;;;;;5.30;3.10;;;;;;;;;;4999059;28;20026;-76
2023/10/14 09:51:12;;;;;;;4.13;2.85;;;;;;;;;;5016143;28;20060;-75
2023/10/14 09:53:38;;;;;;;6.75;3.80;;;;;;;;;;5016254;28;20081;-76
2023/10/14 09:56:08;;;;;;;6.55;4.03;;;;;;;;;;5016038;28;20121;-76
2023/10/14 09:58:35;;;;;;;9.55;3.80;;;;;;;;;;5016349;28;20025;-76
2023/10/14 10:01:06;;;;;;;7.47;3.85;;;;;;;;;;5015530;28;20044;-76
2023/10/14 10:03:50;;;;;;;6.07;3.88;;;;;;;;;;5016147;28;20025;-76
2023/10/14 10:06:25;;;;;;;9.80;3.72;;;;;;;;;;5015295;28;20029;-76
2023/10/14 10:09:04;;;;;;;11.13;3.83;;;;;;;;;;5015641;28;20053;-76
2023/10/14 10:11:33;;;;;;;5.97;3.53;;;;;;;;;;5016161;28;20068;-76
2023/10/14 10:13:59;;;;;;;5.85;3.63;;;;;;;;;;5016034;28;20037;-76
2023/10/14 10:16:30;;;;;;;5.38;3.33;;;;;;;;;;5015772;28;20026;-76
2023/10/14 10:18:57;;;;;;;7.50;3.87;;;;;;;;;;4997630;28;20026;-76
2023/10/14 10:21:30;;;;;;;7.95;4.13;;;;;;;;;;5015787;28;20022;-76
2023/10/14 10:24:00;;;;;;;10.80;4.13;;;;;;;;;;4997703;28;20069;-75
2023/10/14 10:26:27;;;;;;;5.75;3.75;;;;;;;;;;5015365;28;20088;-76
2023/10/14 10:28:53;;;;;;;7.25;3.40;;;;;;;;;;5015695;28;20026;-76
2023/10/14 10:31:23;;;;;;;6.07;3.17;;;;;;;;;;5015629;28;20030;-76
2023/10/14 10:33:57;;;;;;;5.50;3.28;;;;;;;;;;4997394;28;20396;-76
2023/10/14 10:36:30;;;;;;;5.85;3.58;;;;;;;;;;5019115;28;20403;-75
2023/10/14 10:39:05;;;;;;;8.48;3.30;;;;;;;;;;5016258;28;20053;-75
2023/10/14 10:41:36;;;;;;;8.68;3.80;;;;;;;;;;4994865;28;20034;-75
2023/10/14 10:44:05;;;;;;;10.25;3.47;;;;;;;;;;4995585;28;20422;-75
2023/10/14 10:46:31;;;;;;;8.13;3.67;;;;;;;;;;4978920;28;20037;-76
2023/10/14 10:48:57;;;;;;;7.53;4.35;;;;;;;;;;5022065;28;20038;-76
2023/10/14 10:51:25;;;;;;;4.55;2.85;;;;;;;;;;5023803;28;20036;-75
2023/10/14 10:53:52;;;;;;;10.25;3.45;;;;;;;;;;5021558;28;20052;-76
2023/10/14 10:56:19;;;;;;;6.38;3.47;;;;;;;;;;5022386;28;20029;-75
2023/10/14 10:58:46;;;;;;;8.93;3.33;;;;;;;;;;5024715;28;20109;-76
2023/10/14 11:01:14;;;;;;;6.97;3.35;;;;;;;;;;5020117;28;20454;-76
2023/10/14 11:03:42;;;;;;;5.53;2.88;;;;;;;;;;5014743;28;20469;-77
2023/10/14 11:06:13;;;;;;;7.18;3.30;;;;;;;;;;5015361;28;20046;-77
2023/10/14 11:08:40;;;;;;;7.87;3.10;;;;;;;;;;4997423;28;20061;-76
2023/10/14 11:11:07;;;;;;;7.07;3.38;;;;;;;;;;5015147;28;20109;-76
2023/10/14 11:13:36;;;;;;;7.43;3.50;;;;;;;;;;5015906;28;20481;-75
2023/10/14 11:16:13;;;;;;;6.70;3.33;;;;;;;;;;5014877;28;20509;-75
2023/10/14 11:18:46;;;;;;;7.03;3.38;;;;;;;;;;4997235;28;20491;-75
2023/10/14 11:21:13;;;;;;;8.73;3.70;;;;;;;;;;5015009;28;20058;-76
2023/10/14 11:23:39;;;;;;;10.82;2.75;;;;;;;;;;5016296;28;20022;-75
2023/10/14 11:26:11;;;;;;;3.80;3.00;;;;;;;;;;5014413;28;20080;-76
2023/10/14 11:28:37;;;;;;;4.47;2.67;;;;;;;;;;5018010;28;20033;-77
2023/10/14 11:31:07;;;;;;;7.45;2.55;;;;;;;;;;5022618;28;20416;-75
2023/10/14 11:33:36;;;;;;;4.82;2.55;;;;;;;;;;5021570;28;20022;-76
2023/10/14 11:36:03;;;;;;;5.38;2.78;;;;;;;;;;5019144;28;20026;-76
2023/10/14 11:38:33;;;;;;;7.72;2.95;;;;;;;;;;5017209;28;20022;-77
2023/10/14 11:41:02;;;;;;;5.30;3.10;;;;;;;;;;5015091;28;20033;-77
2023/10/14 11:43:30;;;;;;;4.40;2.20;;;;;;;;;;5015120;28;20022;-76
2023/10/14 11:45:56;;;;;;;5.32;2.83;;;;;;;;;;4997208;28;20030;-77
2023/10/14 11:48:27;;;;;;;4.38;2.67;;;;;;;;;;5014271;28;20053;-77
2023/10/14 11:50:53;;;;;;;10.88;2.78;;;;;;;;;;4996331;28;20034;-77
2023/10/14 11:53:29;;;;;;;3.22;2.22;;;;;;;;;;5013729;28;20033;-76
2023/10/14 11:56:04;;;;;;;4.68;2.75;;;;;;;;;;5014141;28;20026;-76
2023/10/14 11:58:31;;;;;;;4.45;2.42;;;;;;;;;;5014093;28;20048;-76
2023/10/14 12:00:58;;;;;;;5.78;2.20;;;;;;;;;;5012732;28;20361;-76
2023/10/14 12:03:27;;;;;;;1.85;1.73;;;;;;;;;;5013232;28;20453;-75
2023/10/14 12:05:57;;;;;;;2.92;2.30;;;;;;;;;;5013028;28;20479;-76
2023/10/14 12:08:27;;;;;;;3.92;2.30;;;;;;;;;;5013157;28;20148;-75
2023/10/14 12:10:53;;;;;;;3.13;1.98;;;;;;;;;;5012950;28;20068;-76
2023/10/14 12:13:20;;;;;;;3.45;2.40;;;;;;;;;;5013696;28;20033;-76
2023/10/14 12:15:46;;;;;;;3.40;2.70;;;;;;;;;;5013133;28;20026;-75
2023/10/14 12:18:15;;;;;;;2.33;2.03;;;;;;;;;;5012946;28;20405;-76
2023/10/14 12:20:46;;;;;;;3.40;1.67;;;;;;;;;;5012506;28;20029;-76
2023/10/14 12:23:13;;;;;;;7.10;2.63;;;;;;;;;;5012510;28;20029;-77
2023/10/14 12:25:39;;;;;;;2.05;1.95;;;;;;;;;;5012609;28;20539;-77
2023/10/14 12:28:05;;;;;;;4.00;2.42;;;;;;;;;;5012784;28;20106;-75
2023/10/14 12:30:43;;;;;;;4.68;2.20;;;;;;;;;;5012779;28;20369;-76
2023/10/14 12:33:18;;;;;;;2.72;2.15;;;;;;;;;;4994504;28;20122;-76
2023/10/14 12:35:45;;;;;;;3.45;1.70;;;;;;;;;;5012828;28;20469;-76
2023/10/14 12:38:19;;;;;;;1.70;1.60;;;;;;;;;;5012775;28;20374;-76
2023/10/14 12:40:45;;;;;;;4.22;2.20;;;;;;;;;;5012762;28;20018;-76
2023/10/14 12:43:15;;;;;;;2.55;1.92;;;;;;;;;;5012402;28;20504;-76
2023/10/14 12:45:42;;;;;;;3.60;1.80;;;;;;;;;;5012569;28;20101;-76
2023/10/14 12:48:11;;;;;;;2.03;1.83;;;;;;;;;;5012707;28;20041;-76
2023/10/14 12:50:41;;;;;;;2.53;2.00;;;;;;;;;;5012830;28;20030;-76
2023/10/14 12:53:12;;;;;;;3.97;2.35;;;;;;;;;;5012555;28;20038;-75
2023/10/14 12:55:42;;;;;;;3.17;2.35;;;;;;;;;;5012383;28;20037;-76
2023/10/14 12:58:08;;;;;;;4.00;2.00;;;;;;;;;;5012603;28;20517;-75
2023/10/14 13:00:35;;;;;;;4.82;2.30;;;;;;;;;;5015026;28;20049;-75
2023/10/14 13:03:09;;;;;;;3.58;2.72;;;;;;;;;;5014738;28;20025;-76
2023/10/14 13:05:35;;;;;;;5.22;2.67;;;;;;;;;;5017188;28;20026;-74
2023/10/14 13:08:02;;;;;;;3.03;2.13;;;;;;;;;;5017840;28;20022;-76
2023/10/14 13:10:28;;;;;;;3.72;2.58;;;;;;;;;;5017674;28;20490;-77
2023/10/14 13:12:58;;;;;;;5.05;2.78;;;;;;;;;;5017490;28;20026;-77
2023/10/14 13:15:28;;;;;;;5.50;2.38;;;;;;;;;;5016516;28;20034;-77
2023/10/14 13:17:56;;;;;;;4.32;2.22;;;;;;;;;;5017877;28;20536;-76
2023/10/14 13:20:28;;;;;;;2.92;2.35;;;;;;;;;;5017143;28;20026;-75
2023/10/14 13:22:58;;;;;;;4.20;2.50;;;;;;;;;;5016230;28;20022;-77
2023/10/14 13:25:24;;;;;;;3.72;1.85;;;;;;;;;;5016734;28;20026;-76
2023/10/14 13:27:51;;;;;;;3.45;2.13;;;;;;;;;;5016981;28;20026;-76
2023/10/14 13:30:24;;;;;;;3.67;2.05;;;;;;;;;;5017020;28;20041;-76
2023/10/14 13:32:54;;;;;;;6.07;2.40;;;;;;;;;;5016549;28;20069;-76
2023/10/14 13:35:20;;;;;;;4.03;1.90;;;;;;;;;;5015801;28;20030;-75
2023/10/14 13:37:47;;;;;;;1.80;1.63;;;;;;;;;;5016600;28;20014;-75
2023/10/14 13:40:20;;;;;;;8.85;2.60;;;;;;;;;;5016747;28;20029;-75
2023/10/14 13:42:46;;;;;;;5.28;2.40;;;;;;;;;;5016514;28;20493;-76
2023/10/14 13:45:12;;;;;;;5.50;2.38;;;;;;;;;;5016264;28;20029;-75
2023/10/14 13:47:41;;;;;;;5.18;2.67;;;;;;;;;;5015841;28;20029;-76
2023/10/14 13:50:10;;;;;;;4.57;2.15;;;;;;;;;;5016099;28;20038;-75
2023/10/14 13:52:37;;;;;;;4.00;2.28;;;;;;;;;;5015530;28;20022;-76
2023/10/14 13:55:04;;;;;;;2.60;1.80;;;;;;;;;;4997829;28;20046;-76
2023/10/14 13:57:32;;;;;;;5.03;2.00;;;;;;;;;;5015516;28;20076;-75
2023/10/14 13:59:58;;;;;;;3.22;1.75;;;;;;;;;;5015204;28;20056;-76
2023/10/14 14:02:24;;;;;;;4.00;2.00;;;;;;;;;;5015227;28;20029;-76
2023/10/14 14:04:50;;;;;;;6.03;1.80;;;;;;;;;;5015021;28;20436;-76
2023/10/14 14:07:16;;;;;;;2.60;1.65;;;;;;;;;;5015281;28;20535;-76
2023/10/14 14:09:43;;;;;;;2.47;1.70;;;;;;;;;;4997549;28;20113;-77
2023/10/14 14:12:09;;;;;;;2.08;1.73;;;;;;;;;;5015283;28;20473;-76
2023/10/14 14:14:36;;;;;;;2.38;2.17;;;;;;;;;;5014594;28;20041;-76
2023/10/14 14:17:05;;;;;;;2.38;1.70;;;;;;;;;;5014873;28;20497;-77
2023/10/14 14:19:32;;;;;;;2.08;1.20;;;;;;;;;;5015073;28;20064;-76
2023/10/14 14:21:58;;;;;;;3.92;1.70;;;;;;;;;;5014889;28;20018;-75
2023/10/14 14:24:26;;;;;;;3.95;1.52;;;;;;;;;;5014623;28;20334;-76
2023/10/14 14:26:52;;;;;;;4.05;1.73;;;;;;;;;;5014544;28;20349;-76
2023/10/14 14:29:18;;;;;;;3.17;1.80;;;;;;;;;;5014706;28;20022;-77
2023/10/14 14:31:49;;;;;;;3.72;1.67;;;;;;;;;;5014578;28;20068;-77
2023/10/14 14:34:15;;;;;;;1.17;0.98;;;;;;;;;;5015661;28;20114;-77
2023/10/14 14:36:44;;;;;;;3.95;1.25;;;;;;;;;;5015072;28;20392;-76
2023/10/14 14:39:15;;;;;;;1.83;1.15;;;;;;;;;;5014748;28;20021;-76
2023/10/14 14:41:44;;;;;;;0.95;0.95;;;;;;;;;;5014852;28;20045;-76
2023/10/14 14:44:10;;;;;;;1.48;0.88;;;;;;;;;;5014366;28;20021;-76
2023/10/14 14:46:36;;;;;;;1.38;0.80;;;;;;;;;;5014639;28;20026;-76
2023/10/14 14:49:03;;;;;;;0.90;0.55;;;;;;;;;;5014519;28;20029;-76
2023/10/14 14:51:29;;;;;;;0.88;0.40;;;;;;;;;;5014937;28;20049;-76
2023/10/14 14:53:56;;;;;;;1.20;0.40;;;;;;;;;;5014354;28;20029;-77
2023/10/14 14:56:24;;;;;;;0.82;0.35;;;;;;;;;;5014527;28;20030;-77
2023/10/14 14:58:50;;;;;;;0.75;0.43;;;;;;;;;;5014518;28;20158;-76
2023/10/14 15:01:24;;;;;;;0.70;0.65;;;;;;;;;;5014518;28;20045;-78
2023/10/14 15:03:51;;;;;;;0.28;0.28;;;;;;;;;;5014577;28;20517;-76
2023/10/14 15:06:18;;;;;;;0.50;0.47;;;;;;;;;;5014309;28;20033;-77
2023/10/14 15:08:46;;;;;;;0.65;0.52;;;;;;;;;;5014418;28;20460;-76
2023/10/14 15:11:13;;;;;;;3.15;0.70;;;;;;;;;;5013898;28;20117;-77
2023/10/14 15:13:40;;;;;;;1.17;0.68;;;;;;;;;;5015408;28;20484;-76
2023/10/14 15:16:06;;;;;;;1.83;0.80;;;;;;;;;;5014487;28;20061;-76
2023/10/14 15:18:32;;;;;;;0.68;0.68;;;;;;;;;;5014155;28;20429;-76
2023/10/14 15:20:58;;;;;;;1.85;0.40;;;;;;;;;;5014126;28;20048;-76
2023/10/14 15:23:24;;;;;;;1.10;0.43;;;;;;;;;;5014790;28;20049;-77
2023/10/14 15:25:50;;;;;;;2.22;0.70;;;;;;;;;;4996564;28;20178;-76